Salten — LMFM — position and weather

sailwx.info

Track history (hours):
 
Tides and Currents Weather Stations Pressure Air Temp Water Temp Dewpoint Dewpoint Depression Visibility Wind Speed Wind Dir Waves Ship Positions

Salten

Last reported at 2017-Jan-21 07:33 UTC. Time now 2017-Jan-21 08:38 UTC.
Position N 66°33' E 012°57'.

Length 41 m; draft 2 m.

Type: High speed craft. MMSI: 259387000.

Date/timePositionNaut miles runAvg speedWind from/ knotsBaromVisibWave heightAir tempDewpointWater temp
2017-Jan-21 07:33N 66°33' E 012°57'2618.4
2017-Jan-21 06:08N 66°07' E 012°45'0 0.0
2017-Jan-20 20:24N 66°07' E 012°45'1617.0
2017-Jan-20 19:27N 66°23' E 012°48'1513.3
2017-Jan-20 18:18N 66°37' E 012°59'2111.9
2017-Jan-20 16:33N 66°54' E 013°31'1817.7
2017-Jan-20 15:34N 67°08' E 013°58'1313.0
2017-Jan-20 14:34N 67°17' E 014°22'0 0.1
2017-Jan-20 13:34N 67°17' E 014°22'0 0.0
2017-Jan-20 12:34N 67°17' E 014°22'0 0.0
2017-Jan-20 11:33N 67°17' E 014°22'1211.7
2017-Jan-20 10:34N 67°09' E 014°01'3215.6
2017-Jan-20 08:31N 66°43' E 013°14'2626.9
2017-Jan-20 07:33N 67°03' E 013°52'1818.0
2017-Jan-20 06:33N 67°17' E 014°22'0 0.0
2017-Jan-20 05:33N 67°17' E 014°22'0 0.0
2017-Jan-20 04:33N 67°17' E 014°22'0 0.0
2017-Jan-20 03:33N 67°17' E 014°22'0 0.0
2017-Jan-20 02:33N 67°17' E 014°22'0 0.0
2017-Jan-20 01:33N 67°17' E 014°22'0 0.0
2017-Jan-20 00:33N 67°17' E 014°22'0 0.0
2017-Jan-19 23:33N 67°17' E 014°22'0 0.0
2017-Jan-19 22:33N 67°17' E 014°22'0 0.0
2017-Jan-19 21:33N 67°17' E 014°22'0 0.0
2017-Jan-19 20:33N 67°17' E 014°22'0 0.0
2017-Jan-19 19:33N 67°17' E 014°22'0 0.0
2017-Jan-19 18:33N 67°17' E 014°22'0 0.0
2017-Jan-19 17:33N 67°17' E 014°22'0 0.0
2017-Jan-19 16:33N 67°17' E 014°22'0 0.0
2017-Jan-19 15:33N 67°17' E 014°22'0 0.0
2017-Jan-19 14:33N 67°17' E 014°22'0 0.0
2017-Jan-19 13:33N 67°17' E 014°22'0 0.0
2017-Jan-19 12:33N 67°17' E 014°22'0 0.0
2017-Jan-19 11:33N 67°17' E 014°22'0 0.0
2017-Jan-19 10:33N 67°17' E 014°22'0 0.0
2017-Jan-19 09:33N 67°17' E 014°22'0 0.0
2017-Jan-19 08:33N 67°17' E 014°22'0 0.0
2017-Jan-19 07:33N 67°17' E 014°22'0 0.0
2017-Jan-19 06:33N 67°17' E 014°22'0 0.0
2017-Jan-19 05:33N 67°17' E 014°22'0 0.0
2017-Jan-19 04:33N 67°17' E 014°22'0 0.0
2017-Jan-19 03:33N 67°17' E 014°22'0 0.0
2017-Jan-19 02:33N 67°17' E 014°22'0 0.0
2017-Jan-19 01:33N 67°17' E 014°22'0 0.0
2017-Jan-19 00:33N 67°17' E 014°22'0 0.0
2017-Jan-18 23:33N 67°17' E 014°22'0 0.0
2017-Jan-18 22:33N 67°17' E 014°22'0 0.0
2017-Jan-18 21:33N 67°17' E 014°22'0 0.0
2017-Jan-18 20:33N 67°17' E 014°22'0 0.0
2017-Jan-18 19:33N 67°17' E 014°22'0 0.0
2017-Jan-18 18:33N 67°17' E 014°22'0 0.0
2017-Jan-18 17:33N 67°17' E 014°22'0 0.0
2017-Jan-18 16:33N 67°17' E 014°22'0 0.0
2017-Jan-18 15:33N 67°17' E 014°22'0 0.0
2017-Jan-18 14:33N 67°17' E 014°22'0 0.0
2017-Jan-18 13:33N 67°17' E 014°22'0 0.0
2017-Jan-18 12:33N 67°17' E 014°22'0 0.0
2017-Jan-18 11:33N 67°17' E 014°22'10 9.8
2017-Jan-18 10:34N 67°11' E 014°04'3915.8
2017-Jan-18 08:03N 66°39' E 013°04'815.2
2017-Jan-18 07:31N 66°31' E 013°00'25 2.2
2017-Jan-17 20:06N 66°07' E 012°45'1320.1
2017-Jan-17 19:27N 66°20' E 012°53'1815.9
2017-Jan-17 18:19N 66°37' E 012°59'2312.0
2017-Jan-17 16:26N 66°57' E 013°29'1719.4
2017-Jan-17 15:34N 67°07' E 014°02'1212.4
2017-Jan-17 14:34N 67°17' E 014°22'0 0.0
2017-Jan-17 13:34N 67°17' E 014°22'0 0.0
2017-Jan-17 12:33N 67°17' E 014°22'0 0.0
2017-Jan-17 11:33N 67°17' E 014°22'0 0.0
2017-Jan-17 10:33N 67°17' E 014°22'0 0.0
2017-Jan-17 09:33N 67°17' E 014°22'1111.3
2017-Jan-17 08:33N 67°27' E 014°34'4 2.1
2017-Jan-17 06:32N 67°31' E 014°39'1616.0
2017-Jan-17 05:33N 67°17' E 014°22'0 0.0
2017-Jan-17 04:33N 67°17' E 014°22'0 0.0
2017-Jan-17 03:33N 67°17' E 014°22'0 0.0
2017-Jan-17 02:33N 67°17' E 014°22'0 0.0
2017-Jan-17 01:33N 67°17' E 014°22'0 0.0
2017-Jan-17 00:33N 67°17' E 014°22'0 0.0
2017-Jan-16 23:33N 67°17' E 014°22'0 0.0
2017-Jan-16 22:33N 67°17' E 014°22'0 0.0
2017-Jan-16 21:33N 67°17' E 014°22'0 0.0
2017-Jan-16 20:33N 67°17' E 014°22'0 0.0
2017-Jan-16 19:33N 67°17' E 014°22'1918.2
2017-Jan-16 18:29N 67°35' E 014°44'12 6.2
2017-Jan-16 16:33N 67°25' E 014°27'8 7.7
2017-Jan-16 15:33N 67°17' E 014°22'0 0.0
2017-Jan-16 14:34N 67°17' E 014°22'0 0.0
2017-Jan-16 13:33N 67°17' E 014°22'0 0.0
2017-Jan-16 12:34N 67°17' E 014°22'0 0.0
2017-Jan-16 11:34N 67°17' E 014°22'0 0.0
2017-Jan-16 10:33N 67°17' E 014°22'0 0.0
2017-Jan-16 09:34N 67°17' E 014°22'2014.5
2017-Jan-16 08:10N 67°36' E 014°42'0 0.0
2017-Jan-15 20:09N 67°36' E 014°42'1932.0
2017-Jan-15 19:34N 67°18' E 014°23'1 1.2
2017-Jan-15 18:33N 67°17' E 014°22'8 0.3
2017-Jan-14 16:34N 67°24' E 014°27'8 7.6
2017-Jan-14 15:33N 67°17' E 014°22'0 0.0
2017-Jan-14 14:33N 67°17' E 014°22'0 0.0
2017-Jan-14 13:33N 67°17' E 014°22'0 0.0
2017-Jan-14 12:33N 67°17' E 014°22'0 0.4
2017-Jan-14 11:33N 67°17' E 014°23'1312.7
2017-Jan-14 10:34N 67°07' E 014°03'3114.9
2017-Jan-14 08:28N 66°43' E 013°14'1213.3
2017-Jan-14 07:33N 66°32' E 012°58'2417.4
2017-Jan-14 06:09N 66°08' E 012°50'6 0.6
2017-Jan-13 20:05N 66°12' E 012°60'1220.2
2017-Jan-13 19:31N 66°23' E 012°48'1512.0
2017-Jan-13 18:15N 66°37' E 012°59'2111.7
2017-Jan-13 16:27N 66°54' E 013°31'1719.0
2017-Jan-13 15:33N 67°08' E 013°58'1313.4
2017-Jan-13 14:33N 67°17' E 014°22'0 0.0
2017-Jan-13 13:33N 67°17' E 014°22'0 0.0
2017-Jan-13 12:34N 67°17' E 014°22'0 0.0
2017-Jan-13 11:33N 67°17' E 014°22'1010.1
2017-Jan-13 10:34N 67°10' E 014°04'3416.1
2017-Jan-13 08:28N 66°43' E 013°14'1713.7
2017-Jan-13 07:16N 66°28' E 012°55'2119.2
2017-Jan-13 06:09N 66°07' E 012°45'10 1.0
2017-Jan-12 19:33N 66°16' E 012°55'2116.0
2017-Jan-12 18:14N 66°37' E 012°59'2211.1
2017-Jan-12 16:17N 66°56' E 013°27'1824.5
2017-Jan-12 15:33N 67°07' E 014°03'1212.3
2017-Jan-12 14:34N 67°17' E 014°22'0 0.0
2017-Jan-12 13:33N 67°17' E 014°22'0 0.0
2017-Jan-12 12:33N 67°17' E 014°22'0 0.0
2017-Jan-12 11:33N 67°17' E 014°22'6 5.6
2017-Jan-12 10:34N 67°13' E 014°12'5016.7
2017-Jan-12 07:33N 66°33' E 012°58'11 0.9
2017-Jan-11 19:18N 66°22' E 012°49'5013.5
2017-Jan-11 15:33N 67°05' E 013°56'1615.6
2017-Jan-11 14:34N 67°17' E 014°22'0 0.0
2017-Jan-11 13:34N 67°17' E 014°22'0 0.0
2017-Jan-11 12:34N 67°17' E 014°22'0 0.0
2017-Jan-11 11:33N 67°17' E 014°22'0 0.0
2017-Jan-11 10:33N 67°17' E 014°22'0 0.0
2017-Jan-11 09:33N 67°17' E 014°22'10 9.4
2017-Jan-11 08:33N 67°26' E 014°33'  
Track history (hours):
 
Tides and Currents Weather Stations Pressure Air Temp Water Temp Dewpoint Dewpoint Depression Visibility Wind Speed Wind Dir Waves Ship Positions

Salten

Last reported at 2017-Jan-21 07:33 UTC. Time now 2017-Jan-21 08:38 UTC.
Position N 66°33' E 012°57'.

Length 41 m; draft 2 m.

Type: High speed craft. MMSI: 259387000.

Date/timePositionNaut miles runAvg speedWind from/ knotsBaromVisibWave heightAir tempDewpointWater temp
2017-Jan-21 07:33N 66°33' E 012°57'2618.4
2017-Jan-21 06:08N 66°07' E 012°45'0 0.0
2017-Jan-20 20:24N 66°07' E 012°45'1617.0
2017-Jan-20 19:27N 66°23' E 012°48'1513.3
2017-Jan-20 18:18N 66°37' E 012°59'2111.9
2017-Jan-20 16:33N 66°54' E 013°31'1817.7
2017-Jan-20 15:34N 67°08' E 013°58'1313.0
2017-Jan-20 14:34N 67°17' E 014°22'0 0.1
2017-Jan-20 13:34N 67°17' E 014°22'0 0.0
2017-Jan-20 12:34N 67°17' E 014°22'0 0.0
2017-Jan-20 11:33N 67°17' E 014°22'1211.7
2017-Jan-20 10:34N 67°09' E 014°01'3215.6
2017-Jan-20 08:31N 66°43' E 013°14'2626.9
2017-Jan-20 07:33N 67°03' E 013°52'1818.0
2017-Jan-20 06:33N 67°17' E 014°22'0 0.0
2017-Jan-20 05:33N 67°17' E 014°22'0 0.0
2017-Jan-20 04:33N 67°17' E 014°22'0 0.0
2017-Jan-20 03:33N 67°17' E 014°22'0 0.0
2017-Jan-20 02:33N 67°17' E 014°22'0 0.0
2017-Jan-20 01:33N 67°17' E 014°22'0 0.0
2017-Jan-20 00:33N 67°17' E 014°22'0 0.0
2017-Jan-19 23:33N 67°17' E 014°22'0 0.0
2017-Jan-19 22:33N 67°17' E 014°22'0 0.0
2017-Jan-19 21:33N 67°17' E 014°22'0 0.0
2017-Jan-19 20:33N 67°17' E 014°22'0 0.0
2017-Jan-19 19:33N 67°17' E 014°22'0 0.0
2017-Jan-19 18:33N 67°17' E 014°22'0 0.0
2017-Jan-19 17:33N 67°17' E 014°22'0 0.0
2017-Jan-19 16:33N 67°17' E 014°22'0 0.0
2017-Jan-19 15:33N 67°17' E 014°22'0 0.0
2017-Jan-19 14:33N 67°17' E 014°22'0 0.0
2017-Jan-19 13:33N 67°17' E 014°22'0 0.0
2017-Jan-19 12:33N 67°17' E 014°22'0 0.0
2017-Jan-19 11:33N 67°17' E 014°22'0 0.0
2017-Jan-19 10:33N 67°17' E 014°22'0 0.0
2017-Jan-19 09:33N 67°17' E 014°22'0 0.0
2017-Jan-19 08:33N 67°17' E 014°22'0 0.0
2017-Jan-19 07:33N 67°17' E 014°22'0 0.0
2017-Jan-19 06:33N 67°17' E 014°22'0 0.0
2017-Jan-19 05:33N 67°17' E 014°22'0 0.0
2017-Jan-19 04:33N 67°17' E 014°22'0 0.0
2017-Jan-19 03:33N 67°17' E 014°22'0 0.0
2017-Jan-19 02:33N 67°17' E 014°22'0 0.0
2017-Jan-19 01:33N 67°17' E 014°22'0 0.0
2017-Jan-19 00:33N 67°17' E 014°22'0 0.0
2017-Jan-18 23:33N 67°17' E 014°22'0 0.0
2017-Jan-18 22:33N 67°17' E 014°22'0 0.0
2017-Jan-18 21:33N 67°17' E 014°22'0 0.0
2017-Jan-18 20:33N 67°17' E 014°22'0 0.0
2017-Jan-18 19:33N 67°17' E 014°22'0 0.0
2017-Jan-18 18:33N 67°17' E 014°22'0 0.0
2017-Jan-18 17:33N 67°17' E 014°22'0 0.0
2017-Jan-18 16:33N 67°17' E 014°22'0 0.0
2017-Jan-18 15:33N 67°17' E 014°22'0 0.0
2017-Jan-18 14:33N 67°17' E 014°22'0 0.0
2017-Jan-18 13:33N 67°17' E 014°22'0 0.0
2017-Jan-18 12:33N 67°17' E 014°22'0 0.0
2017-Jan-18 11:33N 67°17' E 014°22'10 9.8
2017-Jan-18 10:34N 67°11' E 014°04'3915.8
2017-Jan-18 08:03N 66°39' E 013°04'815.2
2017-Jan-18 07:31N 66°31' E 013°00'25 2.2
2017-Jan-17 20:06N 66°07' E 012°45'1320.1
2017-Jan-17 19:27N 66°20' E 012°53'1815.9
2017-Jan-17 18:19N 66°37' E 012°59'2312.0
2017-Jan-17 16:26N 66°57' E 013°29'1719.4
2017-Jan-17 15:34N 67°07' E 014°02'1212.4
2017-Jan-17 14:34N 67°17' E 014°22'0 0.0
2017-Jan-17 13:34N 67°17' E 014°22'0 0.0
2017-Jan-17 12:33N 67°17' E 014°22'0 0.0
2017-Jan-17 11:33N 67°17' E 014°22'0 0.0
2017-Jan-17 10:33N 67°17' E 014°22'0 0.0
2017-Jan-17 09:33N 67°17' E 014°22'1111.3
2017-Jan-17 08:33N 67°27' E 014°34'4 2.1
2017-Jan-17 06:32N 67°31' E 014°39'1616.0
2017-Jan-17 05:33N 67°17' E 014°22'0 0.0
2017-Jan-17 04:33N 67°17' E 014°22'0 0.0
2017-Jan-17 03:33N 67°17' E 014°22'0 0.0
2017-Jan-17 02:33N 67°17' E 014°22'0 0.0
2017-Jan-17 01:33N 67°17' E 014°22'0 0.0
2017-Jan-17 00:33N 67°17' E 014°22'0 0.0
2017-Jan-16 23:33N 67°17' E 014°22'0 0.0
2017-Jan-16 22:33N 67°17' E 014°22'0 0.0
2017-Jan-16 21:33N 67°17' E 014°22'0 0.0
2017-Jan-16 20:33N 67°17' E 014°22'0 0.0
2017-Jan-16 19:33N 67°17' E 014°22'1918.2
2017-Jan-16 18:29N 67°35' E 014°44'12 6.2
2017-Jan-16 16:33N 67°25' E 014°27'8 7.7
2017-Jan-16 15:33N 67°17' E 014°22'0 0.0
2017-Jan-16 14:34N 67°17' E 014°22'0 0.0
2017-Jan-16 13:33N 67°17' E 014°22'0 0.0
2017-Jan-16 12:34N 67°17' E 014°22'0 0.0
2017-Jan-16 11:34N 67°17' E 014°22'0 0.0
2017-Jan-16 10:33N 67°17' E 014°22'0 0.0
2017-Jan-16 09:34N 67°17' E 014°22'2014.5
2017-Jan-16 08:10N 67°36' E 014°42'0 0.0
2017-Jan-15 20:09N 67°36' E 014°42'1932.0
2017-Jan-15 19:34N 67°18' E 014°23'1 1.2
2017-Jan-15 18:33N 67°17' E 014°22'8 0.3
2017-Jan-14 16:34N 67°24' E 014°27'8 7.6
2017-Jan-14 15:33N 67°17' E 014°22'0 0.0
2017-Jan-14 14:33N 67°17' E 014°22'0 0.0
2017-Jan-14 13:33N 67°17' E 014°22'0 0.0
2017-Jan-14 12:33N 67°17' E 014°22'0 0.4
2017-Jan-14 11:33N 67°17' E 014°23'1312.7
2017-Jan-14 10:34N 67°07' E 014°03'3114.9
2017-Jan-14 08:28N 66°43' E 013°14'1213.3
2017-Jan-14 07:33N 66°32' E 012°58'2417.4
2017-Jan-14 06:09N 66°08' E 012°50'6 0.6
2017-Jan-13 20:05N 66°12' E 012°60'1220.2
2017-Jan-13 19:31N 66°23' E 012°48'1512.0
2017-Jan-13 18:15N 66°37' E 012°59'2111.7
2017-Jan-13 16:27N 66°54' E 013°31'1719.0
2017-Jan-13 15:33N 67°08' E 013°58'1313.4
2017-Jan-13 14:33N 67°17' E 014°22'0 0.0
2017-Jan-13 13:33N 67°17' E 014°22'0 0.0
2017-Jan-13 12:34N 67°17' E 014°22'0 0.0
2017-Jan-13 11:33N 67°17' E 014°22'1010.1
2017-Jan-13 10:34N 67°10' E 014°04'3416.1
2017-Jan-13 08:28N 66°43' E 013°14'1713.7
2017-Jan-13 07:16N 66°28' E 012°55'2119.2
2017-Jan-13 06:09N 66°07' E 012°45'10 1.0
2017-Jan-12 19:33N 66°16' E 012°55'2116.0
2017-Jan-12 18:14N 66°37' E 012°59'2211.1
2017-Jan-12 16:17N 66°56' E 013°27'1824.5
2017-Jan-12 15:33N 67°07' E 014°03'1212.3
2017-Jan-12 14:34N 67°17' E 014°22'0 0.0
2017-Jan-12 13:33N 67°17' E 014°22'0 0.0
2017-Jan-12 12:33N 67°17' E 014°22'0 0.0
2017-Jan-12 11:33N 67°17' E 014°22'6 5.6
2017-Jan-12 10:34N 67°13' E 014°12'5016.7
2017-Jan-12 07:33N 66°33' E 012°58'11 0.9
2017-Jan-11 19:18N 66°22' E 012°49'5013.5
2017-Jan-11 15:33N 67°05' E 013°56'1615.6
2017-Jan-11 14:34N 67°17' E 014°22'0 0.0
2017-Jan-11 13:34N 67°17' E 014°22'0 0.0
2017-Jan-11 12:34N 67°17' E 014°22'0 0.0
2017-Jan-11 11:33N 67°17' E 014°22'0 0.0
2017-Jan-11 10:33N 67°17' E 014°22'0 0.0
2017-Jan-11 09:33N 67°17' E 014°22'10 9.4
2017-Jan-11 08:33N 67°26' E 014°33'  

Dump ship's entire track history